Beehive, Montana
Current Conditions -  °F | °C
As of 7:53 PM on Saturday 25 Oct 2014 (Local Time) from KLVM Reporting Station
Clear Clear  
Wind Chill: 71°   Ceiling: Unl
Heat Index: 71°   Visibility: 10mi
Dew Point: 25°   Wind: 25mph
Humidity: 18%   Direction: 220°SW
Pressure: 29.73"   Gusts: 38mph
Location:  45.4577°N, 109.823°W
Report Text: KLVM 260153Z AUTO 22022G33KT 10SM CLR 22/M04 A2973 RMK AO2 PK WND 22036/0106 SLP053 T02171039
Loading
Personal Weather Stations






























Interactive Weather Map New forecast layout! Learn more

10-Day Weather Forecast

Advertisements
Track Severe Weather on mobile